sensor_id;sensor_type;location;lat;lon;timestamp;pressure;altitude;pressure_sealevel;temperature;humidity
12781;BME280;6454;43.304;24.344;2023-04-30T00:02:06;100028.31;;;11.38;80.75
12781;BME280;6454;43.304;24.344;2023-04-30T00:04:33;100027.88;;;11.31;80.78
12781;BME280;6454;43.304;24.344;2023-04-30T00:07:00;100037.06;;;11.17;80.89
12781;BME280;6454;43.304;24.344;2023-04-30T00:09:29;100040.81;;;10.97;81.49
12781;BME280;6454;43.304;24.344;2023-04-30T00:11:56;100027.25;;;10.97;81.61
12781;BME280;6454;43.304;24.344;2023-04-30T00:14:22;100038.34;;;11.00;80.79
12781;BME280;6454;43.304;24.344;2023-04-30T00:16:49;100030.63;;;10.89;81.21
12781;BME280;6454;43.304;24.344;2023-04-30T00:19:16;100031.91;;;10.73;82.04
12781;BME280;6454;43.304;24.344;2023-04-30T00:21:43;100029.91;;;10.60;82.48
12781;BME280;6454;43.304;24.344;2023-04-30T00:24:10;100034.00;;;10.57;83.06
12781;BME280;6454;43.304;24.344;2023-04-30T00:26:38;100041.50;;;10.65;81.64
12781;BME280;6454;43.304;24.344;2023-04-30T00:29:05;100053.69;;;10.68;80.72
12781;BME280;6454;43.304;24.344;2023-04-30T00:31:32;100044.56;;;10.59;80.74
12781;BME280;6454;43.304;24.344;2023-04-30T00:33:59;100050.44;;;10.42;81.67
12781;BME280;6454;43.304;24.344;2023-04-30T00:36:25;100044.19;;;10.47;80.71
12781;BME280;6454;43.304;24.344;2023-04-30T00:38:52;100046.19;;;10.36;80.14
12781;BME280;6454;43.304;24.344;2023-04-30T00:41:20;100042.19;;;10.28;80.59
12781;BME280;6454;43.304;24.344;2023-04-30T00:43:49;100045.56;;;10.15;81.09
12781;BME280;6454;43.304;24.344;2023-04-30T00:46:16;100035.03;;;10.09;80.69
12781;BME280;6454;43.304;24.344;2023-04-30T00:48:43;100039.47;;;9.95;81.11
12781;BME280;6454;43.304;24.344;2023-04-30T00:51:09;100043.00;;;9.95;80.75
12781;BME280;6454;43.304;24.344;2023-04-30T00:53:37;100044.63;;;9.96;79.73
12781;BME280;6454;43.304;24.344;2023-04-30T00:56:08;100044.47;;;9.83;79.81
12781;BME280;6454;43.304;24.344;2023-04-30T00:58:35;100044.34;;;9.69;80.67
12781;BME280;6454;43.304;24.344;2023-04-30T01:01:04;100038.94;;;9.64;80.54
12781;BME280;6454;43.304;24.344;2023-04-30T01:03:31;100044.94;;;9.61;80.37
12781;BME280;6454;43.304;24.344;2023-04-30T01:06:00;100047.63;;;9.61;79.60
12781;BME280;6454;43.304;24.344;2023-04-30T01:08:28;100043.34;;;9.55;79.71
12781;BME280;6454;43.304;24.344;2023-04-30T01:11:04;100048.28;;;9.43;80.34
12781;BME280;6454;43.304;24.344;2023-04-30T01:13:48;100045.09;;;9.36;80.64
12781;BME280;6454;43.304;24.344;2023-04-30T01:16:22;100048.66;;;9.31;79.95
12781;BME280;6454;43.304;24.344;2023-04-30T01:18:55;100045.47;;;9.24;79.88
12781;BME280;6454;43.304;24.344;2023-04-30T01:21:23;100047.34;;;9.24;79.67
12781;BME280;6454;43.304;24.344;2023-04-30T01:24:14;100040.91;;;9.15;80.14
12781;BME280;6454;43.304;24.344;2023-04-30T01:26:52;100039.34;;;9.03;80.76
12781;BME280;6454;43.304;24.344;2023-04-30T01:29:26;100030.19;;;8.94;81.01
12781;BME280;6454;43.304;24.344;2023-04-30T01:31:54;100028.03;;;8.91;81.03
12781;BME280;6454;43.304;24.344;2023-04-30T01:34:21;100036.72;;;8.83;80.79
12781;BME280;6454;43.304;24.344;2023-04-30T01:36:54;100039.44;;;8.83;81.00
12781;BME280;6454;43.304;24.344;2023-04-30T01:39:42;100030.53;;;8.78;81.29
12781;BME280;6454;43.304;24.344;2023-04-30T01:42:19;100030.84;;;8.71;81.00
12781;BME280;6454;43.304;24.344;2023-04-30T01:45:18;100030.34;;;8.59;81.17
12781;BME280;6454;43.304;24.344;2023-04-30T01:47:51;100034.66;;;8.55;80.93
12781;BME280;6454;43.304;24.344;2023-04-30T01:50:26;100030.91;;;8.56;80.43
12781;BME280;6454;43.304;24.344;2023-04-30T01:52:58;100029.84;;;8.52;79.91
12781;BME280;6454;43.304;24.344;2023-04-30T01:55:28;100027.69;;;8.44;80.23
12781;BME280;6454;43.304;24.344;2023-04-30T01:57:57;100030.41;;;8.39;81.22
12781;BME280;6454;43.304;24.344;2023-04-30T02:00:27;100017.44;;;8.26;82.02
12781;BME280;6454;43.304;24.344;2023-04-30T02:02:55;100021.78;;;8.22;82.35
12781;BME280;6454;43.304;24.344;2023-04-30T02:05:21;100028.78;;;8.33;82.55
12781;BME280;6454;43.304;24.344;2023-04-30T02:07:50;100033.66;;;8.41;81.49
12781;BME280;6454;43.304;24.344;2023-04-30T02:10:19;100036.34;;;8.46;81.55
12781;BME280;6454;43.304;24.344;2023-04-30T02:12:46;100025.00;;;8.39;81.29
12781;BME280;6454;43.304;24.344;2023-04-30T02:15:13;100022.84;;;8.31;81.61
12781;BME280;6454;43.304;24.344;2023-04-30T02:17:42;100027.72;;;8.24;81.93
12781;BME280;6454;43.304;24.344;2023-04-30T02:20:09;100033.94;;;8.19;81.74
12781;BME280;6454;43.304;24.344;2023-04-30T02:22:36;100032.59;;;8.22;81.47
12781;BME280;6454;43.304;24.344;2023-04-30T02:25:04;100039.88;;;8.21;81.23
12781;BME280;6454;43.304;24.344;2023-04-30T02:27:31;100036.38;;;8.21;81.16
12781;BME280;6454;43.304;24.344;2023-04-30T02:29:59;100028.53;;;8.19;81.48
12781;BME280;6454;43.304;24.344;2023-04-30T02:32:25;100036.38;;;8.11;81.58
12781;BME280;6454;43.304;24.344;2023-04-30T02:34:54;100035.03;;;8.08;80.81
12781;BME280;6454;43.304;24.344;2023-04-30T02:37:21;100043.16;;;7.98;81.15
12781;BME280;6454;43.304;24.344;2023-04-30T02:39:47;100045.31;;;8.01;80.89
12781;BME280;6454;43.304;24.344;2023-04-30T02:42:14;100038.56;;;8.04;80.29
12781;BME280;6454;43.304;24.344;2023-04-30T02:44:41;100050.19;;;8.04;80.06
12781;BME280;6454;43.304;24.344;2023-04-30T02:47:08;100049.38;;;7.89;80.85
12781;BME280;6454;43.304;24.344;2023-04-30T02:49:34;100054.78;;;7.84;82.09
12781;BME280;6454;43.304;24.344;2023-04-30T02:52:03;100049.13;;;7.90;81.67
12781;BME280;6454;43.304;24.344;2023-04-30T02:54:30;100054.25;;;7.92;80.79
12781;BME280;6454;43.304;24.344;2023-04-30T02:56:57;100057.47;;;7.94;80.43
12781;BME280;6454;43.304;24.344;2023-04-30T02:59:23;100059.09;;;7.90;80.88
12781;BME280;6454;43.304;24.344;2023-04-30T03:01:51;100050.47;;;7.83;80.58
12781;BME280;6454;43.304;24.344;2023-04-30T03:04:18;100058.28;;;7.69;81.37
12781;BME280;6454;43.304;24.344;2023-04-30T03:06:44;100060.44;;;7.67;81.40
12781;BME280;6454;43.304;24.344;2023-04-30T03:09:13;100055.06;;;7.67;81.11
12781;BME280;6454;43.304;24.344;2023-04-30T03:11:40;100061.53;;;7.71;80.34
12781;BME280;6454;43.304;24.344;2023-04-30T03:14:07;100056.41;;;7.74;79.11
12781;BME280;6454;43.304;24.344;2023-04-30T03:16:33;100054.25;;;7.66;80.02
12781;BME280;6454;43.304;24.344;2023-04-30T03:19:01;100058.28;;;7.64;80.18
12781;BME280;6454;43.304;24.344;2023-04-30T03:21:27;100061.78;;;7.59;80.62
12781;BME280;6454;43.304;24.344;2023-04-30T03:23:54;100059.63;;;7.51;80.49
12781;BME280;6454;43.304;24.344;2023-04-30T03:26:22;100062.06;;;7.48;80.84
12781;BME280;6454;43.304;24.344;2023-04-30T03:28:49;100060.16;;;7.53;80.05
12781;BME280;6454;43.304;24.344;2023-04-30T03:31:16;100068.00;;;7.45;80.19
12781;BME280;6454;43.304;24.344;2023-04-30T03:33:42;100065.53;;;7.38;80.44
12781;BME280;6454;43.304;24.344;2023-04-30T03:36:09;100070.66;;;7.30;81.67
12781;BME280;6454;43.304;24.344;2023-04-30T03:38:37;100070.38;;;7.31;81.79
12781;BME280;6454;43.304;24.344;2023-04-30T03:41:04;100070.91;;;7.28;82.32
12781;BME280;6454;43.304;24.344;2023-04-30T03:43:32;100067.16;;;7.39;82.03
12781;BME280;6454;43.304;24.344;2023-04-30T03:45:59;100076.34;;;7.48;81.23
12781;BME280;6454;43.304;24.344;2023-04-30T03:48:25;100077.97;;;7.49;80.45
12781;BME280;6454;43.304;24.344;2023-04-30T03:50:52;100081.47;;;7.40;81.18
12781;BME280;6454;43.304;24.344;2023-04-30T03:53:19;100081.19;;;7.36;82.08
12781;BME280;6454;43.304;24.344;2023-04-30T03:55:48;100094.13;;;7.34;82.55
12781;BME280;6454;43.304;24.344;2023-04-30T03:58:14;100078.25;;;7.38;82.63
12781;BME280;6454;43.304;24.344;2023-04-30T04:00:43;100088.25;;;7.57;82.30
12781;BME280;6454;43.304;24.344;2023-04-30T04:03:12;100085.81;;;7.66;81.96
12781;BME280;6454;43.304;24.344;2023-04-30T04:05:38;100095.28;;;7.68;82.23
12781;BME280;6454;43.304;24.344;2023-04-30T04:08:05;100091.22;;;7.61;83.03
12781;BME280;6454;43.304;24.344;2023-04-30T04:10:33;100091.22;;;7.76;83.57
12781;BME280;6454;43.304;24.344;2023-04-30T04:13:00;100087.47;;;7.87;83.40
12781;BME280;6454;43.304;24.344;2023-04-30T04:15:27;100087.47;;;7.97;83.84
12781;BME280;6454;43.304;24.344;2023-04-30T04:17:55;100088.00;;;8.09;84.42
12781;BME280;6454;43.304;24.344;2023-04-30T04:20:22;100087.16;;;8.14;84.91
12781;BME280;6454;43.304;24.344;2023-04-30T04:22:49;100085.00;;;8.21;85.22
12781;BME280;6454;43.304;24.344;2023-04-30T04:25:15;100079.91;;;8.29;85.11
12781;BME280;6454;43.304;24.344;2023-04-30T04:27:43;100089.59;;;8.35;85.16
12781;BME280;6454;43.304;24.344;2023-04-30T04:30:11;100081.75;;;8.44;85.75
12781;BME280;6454;43.304;24.344;2023-04-30T04:32:38;100089.00;;;8.64;86.94
12781;BME280;6454;43.304;24.344;2023-04-30T04:35:16;100084.38;;;8.79;87.16
12781;BME280;6454;43.304;24.344;2023-04-30T04:37:43;100087.00;;;8.94;87.42
12781;BME280;6454;43.304;24.344;2023-04-30T04:40:10;100087.25;;;8.98;87.30
12781;BME280;6454;43.304;24.344;2023-04-30T04:42:38;100092.34;;;9.15;88.33
12781;BME280;6454;43.304;24.344;2023-04-30T04:45:06;100088.97;;;9.33;88.58
12781;BME280;6454;43.304;24.344;2023-04-30T04:47:33;100084.00;;;9.45;88.21
12781;BME280;6454;43.304;24.344;2023-04-30T04:50:00;100079.53;;;9.69;89.45
12781;BME280;6454;43.304;24.344;2023-04-30T04:52:29;100081.81;;;9.91;90.79
12781;BME280;6454;43.304;24.344;2023-04-30T04:54:56;100081.38;;;10.07;91.83
12781;BME280;6454;43.304;24.344;2023-04-30T04:57:22;100072.63;;;10.20;92.02
12781;BME280;6454;43.304;24.344;2023-04-30T04:59:50;100072.19;;;10.37;92.51
12781;BME280;6454;43.304;24.344;2023-04-30T05:02:17;100080.66;;;10.59;92.56
12781;BME280;6454;43.304;24.344;2023-04-30T05:04:44;100032.66;;;10.55;93.04
12781;BME280;6454;43.304;24.344;2023-04-30T05:07:11;100078.75;;;11.02;92.65
12781;BME280;6454;43.304;24.344;2023-04-30T05:09:39;100079.16;;;11.14;92.51
12781;BME280;6454;43.304;24.344;2023-04-30T05:12:06;100080.31;;;11.27;92.23
12781;BME280;6454;43.304;24.344;2023-04-30T05:14:33;100070.56;;;11.44;91.91
12781;BME280;6454;43.304;24.344;2023-04-30T05:17:00;100075.13;;;11.68;91.10
12781;BME280;6454;43.304;24.344;2023-04-30T05:19:27;100070.00;;;11.85;90.42
12781;BME280;6454;43.304;24.344;2023-04-30T05:21:54;100082.03;;;11.97;89.39
12781;BME280;6454;43.304;24.344;2023-04-30T05:24:20;100083.16;;;12.10;88.39
12781;BME280;6454;43.304;24.344;2023-04-30T05:26:49;100086.63;;;12.29;88.13
12781;BME280;6454;43.304;24.344;2023-04-30T05:29:15;100082.53;;;12.45;87.10
12781;BME280;6454;43.304;24.344;2023-04-30T05:31:42;100088.31;;;12.57;85.90
12781;BME280;6454;43.304;24.344;2023-04-30T05:34:09;100092.06;;;12.61;85.64
12781;BME280;6454;43.304;24.344;2023-04-30T05:36:36;100089.91;;;12.72;85.96
12781;BME280;6454;43.304;24.344;2023-04-30T05:39:03;100094.25;;;12.86;84.25
12781;BME280;6454;43.304;24.344;2023-04-30T05:41:30;100095.19;;;12.96;84.14
12781;BME280;6454;43.304;24.344;2023-04-30T05:43:58;100089.63;;;13.14;82.85
12781;BME280;6454;43.304;24.344;2023-04-30T05:46:27;100093.56;;;13.22;82.00
12781;BME280;6454;43.304;24.344;2023-04-30T05:48:53;100090.34;;;13.33;81.78
12781;BME280;6454;43.304;24.344;2023-04-30T05:51:20;100098.84;;;13.54;80.94
12781;BME280;6454;43.304;24.344;2023-04-30T05:53:47;100096.78;;;13.73;79.96
12781;BME280;6454;43.304;24.344;2023-04-30T05:56:14;100097.03;;;13.85;78.87
12781;BME280;6454;43.304;24.344;2023-04-30T05:58:41;100096.66;;;14.00;77.67
12781;BME280;6454;43.304;24.344;2023-04-30T06:01:09;100105.09;;;14.12;76.65
12781;BME280;6454;43.304;24.344;2023-04-30T06:03:36;100086.84;;;14.21;75.13
12781;BME280;6454;43.304;24.344;2023-04-30T06:06:03;100097.00;;;14.52;74.29
12781;BME280;6454;43.304;24.344;2023-04-30T06:08:30;100095.16;;;14.69;73.15
12781;BME280;6454;43.304;24.344;2023-04-30T06:10:57;100103.75;;;14.85;72.76
12781;BME280;6454;43.304;24.344;2023-04-30T06:13:25;100093.03;;;14.97;71.25
12781;BME280;6454;43.304;24.344;2023-04-30T06:15:51;100103.81;;;15.11;70.92
12781;BME280;6454;43.304;24.344;2023-04-30T06:18:20;100112.19;;;15.14;69.71
12781;BME280;6454;43.304;24.344;2023-04-30T06:20:47;100103.56;;;15.29;69.17
12781;BME280;6454;43.304;24.344;2023-04-30T06:23:13;100109.50;;;15.31;67.32
12781;BME280;6454;43.304;24.344;2023-04-30T06:25:40;100106.94;;;15.43;67.98
12781;BME280;6454;43.304;24.344;2023-04-30T06:28:07;100110.22;;;15.54;67.31
12781;BME280;6454;43.304;24.344;2023-04-30T06:30:35;100112.66;;;15.73;66.63
12781;BME280;6454;43.304;24.344;2023-04-30T06:33:01;100109.59;;;15.83;66.03
12781;BME280;6454;43.304;24.344;2023-04-30T06:35:30;100103.47;;;15.94;66.46
12781;BME280;6454;43.304;24.344;2023-04-30T06:37:56;100105.41;;;16.02;65.91
12781;BME280;6454;43.304;24.344;2023-04-30T06:40:23;100105.84;;;16.13;64.67
12781;BME280;6454;43.304;24.344;2023-04-30T06:42:50;100100.03;;;16.23;62.68
12781;BME280;6454;43.304;24.344;2023-04-30T06:45:19;100102.78;;;16.23;60.24
12781;BME280;6454;43.304;24.344;2023-04-30T06:47:45;100101.97;;;16.31;59.65
12781;BME280;6454;43.304;24.344;2023-04-30T06:50:12;100099.53;;;16.38;60.51
12781;BME280;6454;43.304;24.344;2023-04-30T06:52:41;100098.25;;;16.44;59.33
12781;BME280;6454;43.304;24.344;2023-04-30T06:55:09;100096.63;;;16.43;58.55
12781;BME280;6454;43.304;24.344;2023-04-30T06:57:36;100105.59;;;16.69;57.23
12781;BME280;6454;43.304;24.344;2023-04-30T07:00:04;100111.72;;;16.66;56.62
12781;BME280;6454;43.304;24.344;2023-04-30T07:02:32;100103.63;;;16.79;54.97
12781;BME280;6454;43.304;24.344;2023-04-30T07:05:00;100050.72;;;16.57;55.20
12781;BME280;6454;43.304;24.344;2023-04-30T07:07:27;100106.16;;;16.92;54.62
12781;BME280;6454;43.304;24.344;2023-04-30T07:09:55;100006.94;;;16.40;55.14
12781;BME280;6454;43.304;24.344;2023-04-30T07:12:22;100104.50;;;17.00;56.00
12781;BME280;6454;43.304;24.344;2023-04-30T07:14:49;100103.25;;;17.18;56.87
12781;BME280;6454;43.304;24.344;2023-04-30T07:17:16;100103.03;;;17.31;57.25
12781;BME280;6454;43.304;24.344;2023-04-30T07:19:42;100108.56;;;17.23;55.58
12781;BME280;6454;43.304;24.344;2023-04-30T07:22:09;100105.16;;;17.26;55.89
12781;BME280;6454;43.304;24.344;2023-04-30T07:24:36;100104.88;;;17.19;56.13
12781;BME280;6454;43.304;24.344;2023-04-30T07:27:04;100113.38;;;17.26;55.72
12781;BME280;6454;43.304;24.344;2023-04-30T07:29:31;100112.25;;;17.27;55.49
12781;BME280;6454;43.304;24.344;2023-04-30T07:31:58;100108.94;;;17.42;55.00
12781;BME280;6454;43.304;24.344;2023-04-30T07:34:25;100108.47;;;17.69;55.73
12781;BME280;6454;43.304;24.344;2023-04-30T07:36:52;100107.56;;;17.98;55.52
12781;BME280;6454;43.304;24.344;2023-04-30T07:39:19;100104.56;;;17.91;54.21
12781;BME280;6454;43.304;24.344;2023-04-30T07:41:46;100108.56;;;17.93;54.91
12781;BME280;6454;43.304;24.344;2023-04-30T07:44:14;100112.38;;;17.80;54.60
12781;BME280;6454;43.304;24.344;2023-04-30T07:46:42;100107.09;;;17.75;55.15
12781;BME280;6454;43.304;24.344;2023-04-30T07:49:09;100104.28;;;17.63;56.72
12781;BME280;6454;43.304;24.344;2023-04-30T07:51:35;100099.06;;;17.70;57.10
12781;BME280;6454;43.304;24.344;2023-04-30T07:54:03;100108.31;;;17.86;56.20
12781;BME280;6454;43.304;24.344;2023-04-30T07:56:30;100106.97;;;17.92;56.16
12781;BME280;6454;43.304;24.344;2023-04-30T07:58:57;100106.44;;;17.99;56.14
12781;BME280;6454;43.304;24.344;2023-04-30T08:01:25;100114.13;;;17.85;54.55
12781;BME280;6454;43.304;24.344;2023-04-30T08:03:52;100104.09;;;17.89;54.63
12781;BME280;6454;43.304;24.344;2023-04-30T08:06:19;100117.59;;;18.15;54.71
12781;BME280;6454;43.304;24.344;2023-04-30T08:08:47;100117.09;;;18.33;53.93
12781;BME280;6454;43.304;24.344;2023-04-30T08:11:14;100098.84;;;18.49;54.98
12781;BME280;6454;43.304;24.344;2023-04-30T08:13:41;100096.81;;;18.71;53.81
12781;BME280;6454;43.304;24.344;2023-04-30T08:16:07;100101.19;;;18.96;51.70
12781;BME280;6454;43.304;24.344;2023-04-30T08:18:36;100098.91;;;19.10;51.04
12781;BME280;6454;43.304;24.344;2023-04-30T08:21:04;100103.94;;;19.32;51.37
12781;BME280;6454;43.304;24.344;2023-04-30T08:23:31;100095.72;;;19.44;50.92
12781;BME280;6454;43.304;24.344;2023-04-30T08:25:57;100091.00;;;19.45;48.95
12781;BME280;6454;43.304;24.344;2023-04-30T08:28:24;100087.78;;;19.43;48.79
12781;BME280;6454;43.304;24.344;2023-04-30T08:30:51;100095.00;;;19.47;47.98
12781;BME280;6454;43.304;24.344;2023-04-30T08:33:18;100095.31;;;19.58;47.69
12781;BME280;6454;43.304;24.344;2023-04-30T08:35:47;100094.44;;;19.54;46.61
12781;BME280;6454;43.304;24.344;2023-04-30T08:38:13;100088.13;;;19.53;47.32
12781;BME280;6454;43.304;24.344;2023-04-30T08:40:40;100083.41;;;19.54;47.01
12781;BME280;6454;43.304;24.344;2023-04-30T08:43:10;100084.53;;;19.65;47.22
12781;BME280;6454;43.304;24.344;2023-04-30T08:45:37;100085.41;;;19.81;46.45
12781;BME280;6454;43.304;24.344;2023-04-30T08:48:09;100013.06;;;19.41;46.21
12781;BME280;6454;43.304;24.344;2023-04-30T08:50:36;100088.06;;;20.05;46.20
12781;BME280;6454;43.304;24.344;2023-04-30T08:53:06;100082.94;;;20.19;45.73
12781;BME280;6454;43.304;24.344;2023-04-30T08:55:34;100079.91;;;20.36;44.87
12781;BME280;6454;43.304;24.344;2023-04-30T08:58:01;100085.31;;;20.33;44.64
12781;BME280;6454;43.304;24.344;2023-04-30T09:00:30;100082.16;;;20.46;44.04
12781;BME280;6454;43.304;24.344;2023-04-30T09:02:59;100055.38;;;20.31;43.76
12781;BME280;6454;43.304;24.344;2023-04-30T09:05:26;100080.44;;;20.42;44.01
12781;BME280;6454;43.304;24.344;2023-04-30T09:07:53;100074.16;;;20.41;44.29
12781;BME280;6454;43.304;24.344;2023-04-30T09:10:22;100075.66;;;20.39;44.88
12781;BME280;6454;43.304;24.344;2023-04-30T09:12:58;100060.69;;;20.40;46.88
12781;BME280;6454;43.304;24.344;2023-04-30T09:15:26;100083.13;;;20.54;45.82
12781;BME280;6454;43.304;24.344;2023-04-30T09:18:09;100069.44;;;20.58;44.29
12781;BME280;6454;43.304;24.344;2023-04-30T09:20:36;100070.69;;;20.60;45.09
12781;BME280;6454;43.304;24.344;2023-04-30T09:23:08;100071.22;;;20.66;46.40
12781;BME280;6454;43.304;24.344;2023-04-30T09:25:41;100059.94;;;20.71;45.99
12781;BME280;6454;43.304;24.344;2023-04-30T09:28:09;100061.06;;;20.70;46.26
12781;BME280;6454;43.304;24.344;2023-04-30T09:30:37;100030.69;;;20.50;45.32
12781;BME280;6454;43.304;24.344;2023-04-30T09:33:04;100065.00;;;20.69;45.80
12781;BME280;6454;43.304;24.344;2023-04-30T09:35:32;100052.97;;;20.77;45.35
12781;BME280;6454;43.304;24.344;2023-04-30T09:38:00;100062.69;;;20.86;45.42
12781;BME280;6454;43.304;24.344;2023-04-30T09:40:34;100060.00;;;20.90;45.81
12781;BME280;6454;43.304;24.344;2023-04-30T09:43:04;100057.13;;;21.02;46.73
12781;BME280;6454;43.304;24.344;2023-04-30T09:45:39;99923.38;;;20.42;45.54
12781;BME280;6454;43.304;24.344;2023-04-30T09:48:08;100004.25;;;20.96;45.66
12781;BME280;6454;43.304;24.344;2023-04-30T09:50:37;100060.34;;;21.19;44.22
12781;BME280;6454;43.304;24.344;2023-04-30T09:53:05;100048.50;;;21.19;44.22
12781;BME280;6454;43.304;24.344;2023-04-30T09:55:34;100050.66;;;21.10;44.36
12781;BME280;6454;43.304;24.344;2023-04-30T09:58:05;100045.34;;;20.86;45.04
12781;BME280;6454;43.304;24.344;2023-04-30T10:00:33;100047.56;;;20.96;44.60
12781;BME280;6454;43.304;24.344;2023-04-30T10:03:05;99994.03;;;20.81;43.98
12781;BME280;6454;43.304;24.344;2023-04-30T10:05:35;100037.09;;;21.36;44.26
12781;BME280;6454;43.304;24.344;2023-04-30T10:08:04;99991.06;;;20.90;44.10
12781;BME280;6454;43.304;24.344;2023-04-30T10:10:33;99985.81;;;21.00;42.84
12781;BME280;6454;43.304;24.344;2023-04-30T10:13:06;99838.38;;;20.09;43.22
12781;BME280;6454;43.304;24.344;2023-04-30T10:15:39;100035.63;;;21.42;43.82
12781;BME280;6454;43.304;24.344;2023-04-30T10:18:13;100013.84;;;21.37;43.49
12781;BME280;6454;43.304;24.344;2023-04-30T10:20:41;99965.03;;;21.22;43.55
12781;BME280;6454;43.304;24.344;2023-04-30T10:23:08;100024.91;;;21.56;44.62
12781;BME280;6454;43.304;24.344;2023-04-30T10:25:37;100021.81;;;21.61;44.63
12781;BME280;6454;43.304;24.344;2023-04-30T10:28:07;100033.91;;;21.53;43.88
12781;BME280;6454;43.304;24.344;2023-04-30T10:30:34;100020.53;;;21.36;43.25
12781;BME280;6454;43.304;24.344;2023-04-30T10:33:08;100015.06;;;21.40;44.91
12781;BME280;6454;43.304;24.344;2023-04-30T10:35:43;100001.50;;;21.50;43.67
12781;BME280;6454;43.304;24.344;2023-04-30T10:38:17;99974.69;;;21.32;44.83
12781;BME280;6454;43.304;24.344;2023-04-30T10:40:46;100010.38;;;21.78;46.49
12781;BME280;6454;43.304;24.344;2023-04-30T10:43:16;100004.28;;;21.89;45.47
12781;BME280;6454;43.304;24.344;2023-04-30T10:45:44;100014.25;;;21.93;45.26
12781;BME280;6454;43.304;24.344;2023-04-30T10:48:14;100003.44;;;22.07;44.68
12781;BME280;6454;43.304;24.344;2023-04-30T10:50:41;100006.34;;;22.14;44.15
12781;BME280;6454;43.304;24.344;2023-04-30T10:53:12;100007.38;;;22.06;45.01
12781;BME280;6454;43.304;24.344;2023-04-30T10:55:47;99992.44;;;21.88;44.53
12781;BME280;6454;43.304;24.344;2023-04-30T10:58:26;100001.28;;;21.97;44.44
12781;BME280;6454;43.304;24.344;2023-04-30T11:01:03;100000.00;;;22.14;44.78
12781;BME280;6454;43.304;24.344;2023-04-30T11:03:31;99982.41;;;22.22;42.82
12781;BME280;6454;43.304;24.344;2023-04-30T11:06:06;99987.44;;;22.39;42.25
12781;BME280;6454;43.304;24.344;2023-04-30T11:08:35;99993.66;;;22.32;41.53
12781;BME280;6454;43.304;24.344;2023-04-30T11:11:02;99983.31;;;22.29;43.31
12781;BME280;6454;43.304;24.344;2023-04-30T11:13:39;99914.44;;;21.95;41.63
12781;BME280;6454;43.304;24.344;2023-04-30T11:16:07;99986.50;;;22.54;41.59
12781;BME280;6454;43.304;24.344;2023-04-30T11:18:41;99957.28;;;22.53;41.03
12781;BME280;6454;43.304;24.344;2023-04-30T11:21:08;99981.06;;;22.84;39.13
12781;BME280;6454;43.304;24.344;2023-04-30T11:23:36;99978.84;;;22.93;39.03
12781;BME280;6454;43.304;24.344;2023-04-30T11:26:07;99978.91;;;22.70;38.76
12781;BME280;6454;43.304;24.344;2023-04-30T11:28:35;99920.25;;;22.35;40.24
12781;BME280;6454;43.304;24.344;2023-04-30T11:31:04;99927.78;;;22.61;41.01
12781;BME280;6454;43.304;24.344;2023-04-30T11:33:32;99970.97;;;22.95;39.62
12781;BME280;6454;43.304;24.344;2023-04-30T11:36:00;99946.53;;;22.71;40.17
12781;BME280;6454;43.304;24.344;2023-04-30T11:38:28;99961.72;;;22.84;39.26
12781;BME280;6454;43.304;24.344;2023-04-30T11:40:56;99961.06;;;22.94;38.19
12781;BME280;6454;43.304;24.344;2023-04-30T11:43:24;99953.34;;;23.06;39.25
12781;BME280;6454;43.304;24.344;2023-04-30T11:46:14;99903.63;;;22.84;38.83
12781;BME280;6454;43.304;24.344;2023-04-30T11:48:44;99877.75;;;22.69;40.45
12781;BME280;6454;43.304;24.344;2023-04-30T11:51:18;99950.78;;;23.21;39.72
12781;BME280;6454;43.304;24.344;2023-04-30T11:53:47;99942.81;;;23.16;41.41
12781;BME280;6454;43.304;24.344;2023-04-30T11:56:17;99955.28;;;23.32;39.50
12781;BME280;6454;43.304;24.344;2023-04-30T11:58:45;99947.16;;;23.46;39.60
12781;BME280;6454;43.304;24.344;2023-04-30T12:01:18;99945.03;;;23.66;38.52
12781;BME280;6454;43.304;24.344;2023-04-30T12:03:47;99946.88;;;23.88;37.65
12781;BME280;6454;43.304;24.344;2023-04-30T12:06:20;99944.53;;;23.94;37.48
12781;BME280;6454;43.304;24.344;2023-04-30T12:08:48;99942.53;;;23.91;36.86
12781;BME280;6454;43.304;24.344;2023-04-30T12:11:25;99871.13;;;23.37;36.89
12781;BME280;6454;43.304;24.344;2023-04-30T12:13:53;99933.84;;;23.92;37.31
12781;BME280;6454;43.304;24.344;2023-04-30T12:16:22;99929.81;;;23.86;37.03
12781;BME280;6454;43.304;24.344;2023-04-30T12:18:49;99828.69;;;23.26;36.91
12781;BME280;6454;43.304;24.344;2023-04-30T12:21:16;99941.66;;;23.83;36.05
12781;BME280;6454;43.304;24.344;2023-04-30T12:23:44;99937.75;;;23.88;36.35
12781;BME280;6454;43.304;24.344;2023-04-30T12:26:11;99928.78;;;24.01;36.96
12781;BME280;6454;43.304;24.344;2023-04-30T12:28:38;99887.44;;;23.82;35.35
12781;BME280;6454;43.304;24.344;2023-04-30T12:31:05;99887.66;;;23.63;35.09
12781;BME280;6454;43.304;24.344;2023-04-30T12:33:33;99904.59;;;23.58;36.40
12781;BME280;6454;43.304;24.344;2023-04-30T12:36:01;99934.19;;;23.54;36.75
12781;BME280;6454;43.304;24.344;2023-04-30T12:38:28;99926.03;;;23.35;36.79
12781;BME280;6454;43.304;24.344;2023-04-30T12:40:55;99906.31;;;23.06;36.65
12781;BME280;6454;43.304;24.344;2023-04-30T12:43:22;99854.88;;;22.72;37.87
12781;BME280;6454;43.304;24.344;2023-04-30T12:45:50;99910.81;;;23.18;37.83
12781;BME280;6454;43.304;24.344;2023-04-30T12:48:18;99727.53;;;22.02;37.25
12781;BME280;6454;43.304;24.344;2023-04-30T12:50:52;99895.44;;;22.91;37.84
12781;BME280;6454;43.304;24.344;2023-04-30T12:53:22;99888.47;;;22.48;38.77
12781;BME280;6454;43.304;24.344;2023-04-30T12:56:11;99911.44;;;22.52;39.22
12781;BME280;6454;43.304;24.344;2023-04-30T12:58:41;99856.19;;;22.03;38.65
12781;BME280;6454;43.304;24.344;2023-04-30T13:01:11;99836.19;;;21.87;39.05
12781;BME280;6454;43.304;24.344;2023-04-30T13:03:39;99902.09;;;22.60;38.96